9FD6 weather

Academy Heliport
Tampa, Florida, United States

Public forecast

Using degrees Fahrenheit for public forecast. Weather courtesy of forecast.io.

Closest aviation weather report (METAR) to Academy Heliport

Closest report is Peter O Knight Airport, 2.4 nm (4.5 km) SW. Retrieved 2019/12/12 02:35 UTC (23 minutes ago):

KTPF 120235Z AUTO 06015G18KT 10SM OVC013 18/16 A3028 RMK AO2

Closest aviation forecast (TAF) to Academy Heliport

Closest forecast is Tampa International Airport, 6.2 nm (11.5 km) WNW. Retrieved 2019-12-12 00:39 UTC (2 hours ago):

TAF KTPA 112337Z 1200/1306 04010G20KT P6SM SCT020 BKN035 FM120200 04015G22KT P6SM BKN015 BKN040 FM121500 06009G15KT P6SM BKN020 OVC050